Ara Antwerpen — ZDPG8 — position and weather

sailwx.info

Track history (hours):
 
Tides and Currents Weather Stations Pressure Air Temp Water Temp Dewpoint Dewpoint Depression Visibility Wind Speed Wind Dir Waves Ship Positions

Ara Antwerpen

Last reported at 2017-Sep-22 02:00 UTC. Time now 2017-Sep-23 06:00 UTC.
Position N 39°10' E 002°18'.

Length 145 m; draft 7.4 m.

Type: Cargo ship. MMSI: 236670000.

Date/timePositionNaut miles runAvg speedWind from/ knotsBaromVisibWave heightAir tempDewpointWater temp
2017-Sep-22 02:00N 39°10' E 002°18'611.7
2017-Sep-22 01:31N 39°06' E 002°13'611.7
2017-Sep-22 01:00N 39°01' E 002°08'611.9
2017-Sep-22 00:30N 38°57' E 002°03'611.9
2017-Sep-22 00:00N 38°52' E 001°58'611.7
2017-Sep-21 23:30N 38°48' E 001°53'611.6
2017-Sep-21 22:58N 38°43' E 001°48'611.5
2017-Sep-21 22:29N 38°39' E 001°44'3411.7
2017-Sep-21 19:34N 38°18' E 001°08'112.0
2017-Sep-21 19:27N 38°18' E 001°07'711.8
2017-Sep-21 18:51N 38°14' E 000°59'411.0
2017-Sep-21 18:28N 38°12' E 000°55'712.2
2017-Sep-21 17:55N 38°08' E 000°47'812.3
2017-Sep-21 17:18N 38°04' E 000°39'412.4
2017-Sep-21 17:00N 38°02' E 000°36'1312.5
2017-Sep-21 15:56N 37°54' E 000°22'812.3
2017-Sep-21 15:15N 37°49' E 000°13'512.3
2017-Sep-21 14:53N 37°46' E 000°09'1612.2
2017-Sep-21 13:33N 37°37' W 000°08'212.2
2017-Sep-21 13:22N 37°35' W 000°10'512.1
2017-Sep-21 12:56N 37°32' W 000°16'1411.9
2017-Sep-21 11:46N 37°24' W 000°30'1211.8
2017-Sep-21 10:43N 37°17' W 000°43'212.0
2017-Sep-21 10:30N 37°16' W 000°45'611.8
2017-Sep-21 09:58N 37°12' W 000°52'612.0
2017-Sep-21 09:29N 37°09' W 000°58'712.1
2017-Sep-21 08:56N 37°05' W 001°05'6912.0
2017-Sep-21 03:14N 36°22' W 002°12'312.2
2017-Sep-21 03:00N 36°22' W 002°15'1211.8
2017-Sep-21 01:57N 36°20' W 002°30'711.6
2017-Sep-21 01:21N 36°19' W 002°39'1111.8
2017-Sep-21 00:23N 36°17' W 002°53'11413.2
2017-Sep-20 15:44N 35°60' W 005°13'314.6
2017-Sep-20 15:31N 35°59' W 005°16'714.6
2017-Sep-20 15:01N 35°58' W 005°25'8812.2
2017-Sep-20 07:50N 36°07' W 007°14'812.3
2017-Sep-20 07:12N 36°09' W 007°23'312.1
2017-Sep-20 06:55N 36°10' W 007°27'5612.5
2017-Sep-20 02:26N 36°25' W 008°34'613.1
2017-Sep-20 02:00N 36°26' W 008°41'1012.9
2017-Sep-20 01:13N 36°29' W 008°53'813.0
2017-Sep-20 00:34N 36°31' W 009°03'112.7
2017-Sep-20 00:28N 36°32' W 009°05'612.8
2017-Sep-20 00:00N 36°33' W 009°12'612.4
2017-Sep-19 23:30N 36°36' W 009°19'812.7
2017-Sep-19 22:52N 36°42' W 009°26'512.9
2017-Sep-19 22:30N 36°45' W 009°30'1412.9
2017-Sep-19 21:26N 36°58' W 009°35'613.3
2017-Sep-19 20:59N 37°04' W 009°37'913.1
2017-Sep-19 20:18N 37°13' W 009°40'413.1
2017-Sep-19 19:59N 37°17' W 009°41'713.5
2017-Sep-19 19:30N 37°23' W 009°43'713.6
2017-Sep-19 19:00N 37°30' W 009°45'713.4
2017-Sep-19 18:30N 37°36' W 009°47'713.3
2017-Sep-19 18:00N 37°43' W 009°49'612.7
2017-Sep-19 17:30N 37°49' W 009°50'613.0
2017-Sep-19 17:00N 37°55' W 009°52'612.9
2017-Sep-19 16:30N 38°01' W 009°54'612.8
2017-Sep-19 16:00N 38°08' W 009°56'612.8
2017-Sep-19 15:30N 38°14' W 009°58'612.9
2017-Sep-19 15:00N 38°20' W 009°59'713.1
2017-Sep-19 14:30N 38°27' W 010°01'713.5
2017-Sep-19 14:00N 38°33' W 010°03'713.1
2017-Sep-19 13:30N 38°40' W 010°05'713.1
2017-Sep-19 13:00N 38°46' W 010°05'612.7
2017-Sep-19 12:30N 38°52' W 010°06'612.8
2017-Sep-19 12:00N 38°59' W 010°06'612.9
2017-Sep-19 11:30N 39°05' W 010°06'612.8
2017-Sep-19 11:00N 39°12' W 010°06'713.1
2017-Sep-19 10:30N 39°18' W 010°07'713.0
2017-Sep-19 10:00N 39°25' W 010°07'1012.8
2017-Sep-19 09:12N 39°35' W 010°07'812.7
2017-Sep-19 08:36N 39°43' W 010°06'113.0
2017-Sep-19 08:29N 39°44' W 010°06'2212.9
2017-Sep-19 06:49N 40°06' W 010°06'612.7
2017-Sep-19 06:20N 40°12' W 010°06'1013.0
2017-Sep-19 05:32N 40°22' W 010°06'013.0
2017-Sep-19 05:30N 40°23' W 010°06'1912.6
2017-Sep-19 04:00N 40°42' W 010°06'59212.1
2017-Sep-17 03:05N 49°34' W 003°59'111.5
2017-Sep-17 03:00N 49°35' W 003°58'611.5
2017-Sep-17 02:30N 49°38' W 003°50'711.5
2017-Sep-17 01:52N 49°41' W 003°40'411.8
2017-Sep-17 01:30N 49°43' W 003°34'612.1
2017-Sep-17 01:00N 49°46' W 003°26'612.7
2017-Sep-17 00:30N 49°49' W 003°17'713.3
2017-Sep-17 00:00N 49°52' W 003°08'713.9
2017-Sep-16 23:30N 49°56' W 002°59'714.3
2017-Sep-16 23:00N 49°58' W 002°49'9612.2
2017-Sep-16 15:06N 50°27' W 000°25'112.0
2017-Sep-16 15:01N 50°27' W 000°23'612.2
2017-Sep-16 14:30N 50°29' W 000°14'612.8
2017-Sep-16 14:00N 50°31' W 000°04'713.2
2017-Sep-16 13:30N 50°33' E 000°06'713.5
2017-Sep-16 13:00N 50°35' E 000°16'713.6
2017-Sep-16 12:30N 50°37' E 000°26'713.6
2017-Sep-16 12:01N 50°39' E 000°36'713.4
2017-Sep-16 11:30N 50°43' E 000°45'713.1
2017-Sep-16 11:00N 50°46' E 000°53'712.5
2017-Sep-16 10:29N 50°51' E 001°01'712.1
2017-Sep-16 09:57N 50°55' E 001°09'511.5
2017-Sep-16 09:30N 50°58' E 001°15'511.0
2017-Sep-16 09:00N 51°02' E 001°22'510.7
2017-Sep-16 08:30N 51°05' E 001°28'611.0
2017-Sep-16 08:00N 51°09' E 001°35'611.2
2017-Sep-16 07:30N 51°12' E 001°42'611.5
2017-Sep-16 07:00N 51°16' E 001°49'612.5
2017-Sep-16 06:30N 51°21' E 001°54'713.2
2017-Sep-16 06:00N 51°27' E 002°00'713.7
2017-Sep-16 05:30N 51°32' E 002°07'713.5
2017-Sep-16 05:00N 51°38' E 002°14'4213.2
2017-Sep-16 01:50N 52°09' E 002°58'412.3
2017-Sep-16 01:29N 52°13' E 003°02'612.0
2017-Sep-16 00:58N 52°18' E 003°08'611.7
2017-Sep-16 00:29N 52°23' E 003°13'2711.2
2017-Sep-15 22:01N 52°44' E 003°41'411.1
2017-Sep-15 21:40N 52°47' E 003°45'411.4
2017-Sep-15 21:18N 52°50' E 003°50'1311.8
2017-Sep-15 20:13N 52°59' E 004°05'312.3
2017-Sep-15 20:00N 53°01' E 004°08'1612.7
2017-Sep-15 18:43N 53°13' E 004°26'2112.1
2017-Sep-15 16:57N 53°30' E 004°49'511.9
2017-Sep-15 16:30N 53°32' E 004°57'611.4
2017-Sep-15 16:00N 53°34' E 005°06'611.0
2017-Sep-15 15:26N 53°36' E 005°16'9811.0
2017-Sep-15 06:34N 54°01' E 007°56'111.5
2017-Sep-15 06:28N 54°01' E 007°59'511.4
2017-Sep-15 06:00N 54°01' E 008°07'611.3
2017-Sep-15 05:30N 54°00' E 008°17'510.9
2017-Sep-15 05:00N 53°59' E 008°26'4 7.8
2017-Sep-15 04:30N 53°58' E 008°33'5 9.5
2017-Sep-15 04:00N 53°56' E 008°40'510.2
2017-Sep-15 03:30N 53°52' E 008°44'610.9
2017-Sep-15 03:00N 53°51' E 008°53'612.4
2017-Sep-15 02:30N 53°52' E 009°03'3 6.9
2017-Sep-15 02:00N 53°54' E 009°09'0 0.0
2017-Sep-15 01:30N 53°54' E 009°09'1 1.7
2017-Sep-15 01:01N 53°54' E 009°10'4 7.2
2017-Sep-15 00:30N 53°57' E 009°14'4 8.3
2017-Sep-15 00:00N 54°00' E 009°18'2 4.0
2017-Sep-14 23:30N 54°02' E 009°18'2 4.9
2017-Sep-14 23:00N 54°05' E 009°19'4 8.2
2017-Sep-14 22:30N 54°09' E 009°21'42 2.6
2017-Sep-14 05:57N 54°31' E 010°23'511.2
2017-Sep-14 05:30N 54°33' E 010°31'510.9
2017-Sep-14 05:00N 54°35' E 010°40'510.9
2017-Sep-14 04:30N 54°35' E 010°49'510.3
2017-Sep-14 04:00N 54°36' E 010°58'5 9.3
2017-Sep-14 03:30N 54°35' E 011°06'4 8.9
2017-Sep-14 03:00N 54°35' E 011°14'5 9.6
2017-Sep-14 02:30N 54°33' E 011°21'5 9.5
2017-Sep-14 02:00N 54°31' E 011°29'4 8.9
2017-Sep-14 01:30N 54°29' E 011°36'4 8.8
2017-Sep-14 01:00N 54°27' E 011°43'4 8.6
2017-Sep-14 00:30N 54°26' E 011°50'4 8.4
2017-Sep-14 00:00N 54°26' E 011°57'4 8.4
2017-Sep-13 23:30N 54°26' E 012°04'4 7.6
2017-Sep-13 23:00N 54°28' E 012°10'4 8.1
2017-Sep-13 22:30N 54°32' E 012°13'4 7.7
2017-Sep-13 22:00N 54°35' E 012°16'4 7.5
2017-Sep-13 21:30N 54°38' E 012°20'52 8.3
2017-Sep-13 15:16N 54°59' E 013°42'410.2
2017-Sep-13 14:53N 55°01' E 013°48'410.6
2017-Sep-13 14:30N 55°02' E 013°55'510.5
2017-Sep-13 14:00N 55°04' E 014°03'5 9.8
2017-Sep-13 13:30N 55°08' E 014°09'5 9.8
2017-Sep-13 13:00N 55°11' E 014°15'5 9.8
2017-Sep-13 12:30N 55°15' E 014°20'510.0
2017-Sep-13 12:00N 55°19' E 014°26'510.7
2017-Sep-13 11:30N 55°23' E 014°32'611.0
2017-Sep-13 11:00N 55°27' E 014°40'611.3
2017-Sep-13 10:30N 55°29' E 014°48'611.1
2017-Sep-13 10:00N 55°32' E 014°57'611.5
2017-Sep-13 09:30N 55°35' E 015°06'611.5
2017-Sep-13 09:00N 55°38' E 015°14'611.5
2017-Sep-13 08:30N 55°41' E 015°23'611.4
2017-Sep-13 08:00N 55°44' E 015°32'611.5
2017-Sep-13 07:30N 55°47' E 015°40'611.7
2017-Sep-13 07:00N 55°50' E 015°49'611.8
2017-Sep-13 06:30N 55°53' E 015°58'611.8
2017-Sep-13 06:00N 55°56' E 016°07'611.9
2017-Sep-13 05:30N 55°59' E 016°17'611.7
2017-Sep-13 05:00N 56°02' E 016°26'611.6
2017-Sep-13 04:30N 56°05' E 016°34'611.6
2017-Sep-13 04:00N 56°08' E 016°43'911.7
2017-Sep-13 03:14N 56°14' E 016°56'27811.6
2017-Sep-12 03:14N 59°33' E 022°59'312.5
2017-Sep-12 03:00N 59°34' E 023°05'712.8
2017-Sep-12 02:29N 59°36' E 023°17'612.9
2017-Sep-12 02:00N 59°37' E 023°29'  
Track history (hours):
 
Tides and Currents Weather Stations Pressure Air Temp Water Temp Dewpoint Dewpoint Depression Visibility Wind Speed Wind Dir Waves Ship Positions

Ara Antwerpen

Last reported at 2017-Sep-22 02:00 UTC. Time now 2017-Sep-23 06:01 UTC.
Position N 39°10' E 002°18'.

Length 145 m; draft 7.4 m.

Type: Cargo ship. MMSI: 236670000.

Date/timePositionNaut miles runAvg speedWind from/ knotsBaromVisibWave heightAir tempDewpointWater temp
2017-Sep-22 02:00N 39°10' E 002°18'611.7
2017-Sep-22 01:31N 39°06' E 002°13'611.7
2017-Sep-22 01:00N 39°01' E 002°08'611.9
2017-Sep-22 00:30N 38°57' E 002°03'611.9
2017-Sep-22 00:00N 38°52' E 001°58'611.7
2017-Sep-21 23:30N 38°48' E 001°53'611.6
2017-Sep-21 22:58N 38°43' E 001°48'611.5
2017-Sep-21 22:29N 38°39' E 001°44'3411.7
2017-Sep-21 19:34N 38°18' E 001°08'112.0
2017-Sep-21 19:27N 38°18' E 001°07'711.8
2017-Sep-21 18:51N 38°14' E 000°59'411.0
2017-Sep-21 18:28N 38°12' E 000°55'712.2
2017-Sep-21 17:55N 38°08' E 000°47'812.3
2017-Sep-21 17:18N 38°04' E 000°39'412.4
2017-Sep-21 17:00N 38°02' E 000°36'1312.5
2017-Sep-21 15:56N 37°54' E 000°22'812.3
2017-Sep-21 15:15N 37°49' E 000°13'512.3
2017-Sep-21 14:53N 37°46' E 000°09'1612.2
2017-Sep-21 13:33N 37°37' W 000°08'212.2
2017-Sep-21 13:22N 37°35' W 000°10'512.1
2017-Sep-21 12:56N 37°32' W 000°16'1411.9
2017-Sep-21 11:46N 37°24' W 000°30'1211.8
2017-Sep-21 10:43N 37°17' W 000°43'212.0
2017-Sep-21 10:30N 37°16' W 000°45'611.8
2017-Sep-21 09:58N 37°12' W 000°52'612.0
2017-Sep-21 09:29N 37°09' W 000°58'712.1
2017-Sep-21 08:56N 37°05' W 001°05'6912.0
2017-Sep-21 03:14N 36°22' W 002°12'312.2
2017-Sep-21 03:00N 36°22' W 002°15'1211.8
2017-Sep-21 01:57N 36°20' W 002°30'711.6
2017-Sep-21 01:21N 36°19' W 002°39'1111.8
2017-Sep-21 00:23N 36°17' W 002°53'11413.2
2017-Sep-20 15:44N 35°60' W 005°13'314.6
2017-Sep-20 15:31N 35°59' W 005°16'714.6
2017-Sep-20 15:01N 35°58' W 005°25'8812.2
2017-Sep-20 07:50N 36°07' W 007°14'812.3
2017-Sep-20 07:12N 36°09' W 007°23'312.1
2017-Sep-20 06:55N 36°10' W 007°27'5612.5
2017-Sep-20 02:26N 36°25' W 008°34'613.1
2017-Sep-20 02:00N 36°26' W 008°41'1012.9
2017-Sep-20 01:13N 36°29' W 008°53'813.0
2017-Sep-20 00:34N 36°31' W 009°03'112.7
2017-Sep-20 00:28N 36°32' W 009°05'612.8
2017-Sep-20 00:00N 36°33' W 009°12'612.4
2017-Sep-19 23:30N 36°36' W 009°19'812.7
2017-Sep-19 22:52N 36°42' W 009°26'512.9
2017-Sep-19 22:30N 36°45' W 009°30'1412.9
2017-Sep-19 21:26N 36°58' W 009°35'613.3
2017-Sep-19 20:59N 37°04' W 009°37'913.1
2017-Sep-19 20:18N 37°13' W 009°40'413.1
2017-Sep-19 19:59N 37°17' W 009°41'713.5
2017-Sep-19 19:30N 37°23' W 009°43'713.6
2017-Sep-19 19:00N 37°30' W 009°45'713.4
2017-Sep-19 18:30N 37°36' W 009°47'713.3
2017-Sep-19 18:00N 37°43' W 009°49'612.7
2017-Sep-19 17:30N 37°49' W 009°50'613.0
2017-Sep-19 17:00N 37°55' W 009°52'612.9
2017-Sep-19 16:30N 38°01' W 009°54'612.8
2017-Sep-19 16:00N 38°08' W 009°56'612.8
2017-Sep-19 15:30N 38°14' W 009°58'612.9
2017-Sep-19 15:00N 38°20' W 009°59'713.1
2017-Sep-19 14:30N 38°27' W 010°01'713.5
2017-Sep-19 14:00N 38°33' W 010°03'713.1
2017-Sep-19 13:30N 38°40' W 010°05'713.1
2017-Sep-19 13:00N 38°46' W 010°05'612.7
2017-Sep-19 12:30N 38°52' W 010°06'612.8
2017-Sep-19 12:00N 38°59' W 010°06'612.9
2017-Sep-19 11:30N 39°05' W 010°06'612.8
2017-Sep-19 11:00N 39°12' W 010°06'713.1
2017-Sep-19 10:30N 39°18' W 010°07'713.0
2017-Sep-19 10:00N 39°25' W 010°07'1012.8
2017-Sep-19 09:12N 39°35' W 010°07'812.7
2017-Sep-19 08:36N 39°43' W 010°06'113.0
2017-Sep-19 08:29N 39°44' W 010°06'2212.9
2017-Sep-19 06:49N 40°06' W 010°06'612.7
2017-Sep-19 06:20N 40°12' W 010°06'1013.0
2017-Sep-19 05:32N 40°22' W 010°06'013.0
2017-Sep-19 05:30N 40°23' W 010°06'1912.6
2017-Sep-19 04:00N 40°42' W 010°06'59212.1
2017-Sep-17 03:05N 49°34' W 003°59'111.5
2017-Sep-17 03:00N 49°35' W 003°58'611.5
2017-Sep-17 02:30N 49°38' W 003°50'711.5
2017-Sep-17 01:52N 49°41' W 003°40'411.8
2017-Sep-17 01:30N 49°43' W 003°34'612.1
2017-Sep-17 01:00N 49°46' W 003°26'612.7
2017-Sep-17 00:30N 49°49' W 003°17'713.3
2017-Sep-17 00:00N 49°52' W 003°08'713.9
2017-Sep-16 23:30N 49°56' W 002°59'714.3
2017-Sep-16 23:00N 49°58' W 002°49'9612.2
2017-Sep-16 15:06N 50°27' W 000°25'112.0
2017-Sep-16 15:01N 50°27' W 000°23'612.2
2017-Sep-16 14:30N 50°29' W 000°14'612.8
2017-Sep-16 14:00N 50°31' W 000°04'713.2
2017-Sep-16 13:30N 50°33' E 000°06'713.5
2017-Sep-16 13:00N 50°35' E 000°16'713.6
2017-Sep-16 12:30N 50°37' E 000°26'713.6
2017-Sep-16 12:01N 50°39' E 000°36'713.4
2017-Sep-16 11:30N 50°43' E 000°45'713.1
2017-Sep-16 11:00N 50°46' E 000°53'712.5
2017-Sep-16 10:29N 50°51' E 001°01'712.1
2017-Sep-16 09:57N 50°55' E 001°09'511.5
2017-Sep-16 09:30N 50°58' E 001°15'511.0
2017-Sep-16 09:00N 51°02' E 001°22'510.7
2017-Sep-16 08:30N 51°05' E 001°28'611.0
2017-Sep-16 08:00N 51°09' E 001°35'611.2
2017-Sep-16 07:30N 51°12' E 001°42'611.5
2017-Sep-16 07:00N 51°16' E 001°49'612.5
2017-Sep-16 06:30N 51°21' E 001°54'713.2
2017-Sep-16 06:00N 51°27' E 002°00'713.7
2017-Sep-16 05:30N 51°32' E 002°07'713.5
2017-Sep-16 05:00N 51°38' E 002°14'4213.2
2017-Sep-16 01:50N 52°09' E 002°58'412.3
2017-Sep-16 01:29N 52°13' E 003°02'612.0
2017-Sep-16 00:58N 52°18' E 003°08'611.7
2017-Sep-16 00:29N 52°23' E 003°13'2711.2
2017-Sep-15 22:01N 52°44' E 003°41'411.1
2017-Sep-15 21:40N 52°47' E 003°45'411.4
2017-Sep-15 21:18N 52°50' E 003°50'1311.8
2017-Sep-15 20:13N 52°59' E 004°05'312.3
2017-Sep-15 20:00N 53°01' E 004°08'1612.7
2017-Sep-15 18:43N 53°13' E 004°26'2112.1
2017-Sep-15 16:57N 53°30' E 004°49'511.9
2017-Sep-15 16:30N 53°32' E 004°57'611.4
2017-Sep-15 16:00N 53°34' E 005°06'611.0
2017-Sep-15 15:26N 53°36' E 005°16'9811.0
2017-Sep-15 06:34N 54°01' E 007°56'111.5
2017-Sep-15 06:28N 54°01' E 007°59'511.4
2017-Sep-15 06:00N 54°01' E 008°07'611.3
2017-Sep-15 05:30N 54°00' E 008°17'510.9
2017-Sep-15 05:00N 53°59' E 008°26'4 7.8
2017-Sep-15 04:30N 53°58' E 008°33'5 9.5
2017-Sep-15 04:00N 53°56' E 008°40'510.2
2017-Sep-15 03:30N 53°52' E 008°44'610.9
2017-Sep-15 03:00N 53°51' E 008°53'612.4
2017-Sep-15 02:30N 53°52' E 009°03'3 6.9
2017-Sep-15 02:00N 53°54' E 009°09'0 0.0
2017-Sep-15 01:30N 53°54' E 009°09'1 1.7
2017-Sep-15 01:01N 53°54' E 009°10'4 7.2
2017-Sep-15 00:30N 53°57' E 009°14'4 8.3
2017-Sep-15 00:00N 54°00' E 009°18'2 4.0
2017-Sep-14 23:30N 54°02' E 009°18'2 4.9
2017-Sep-14 23:00N 54°05' E 009°19'4 8.2
2017-Sep-14 22:30N 54°09' E 009°21'42 2.6
2017-Sep-14 05:57N 54°31' E 010°23'511.2
2017-Sep-14 05:30N 54°33' E 010°31'510.9
2017-Sep-14 05:00N 54°35' E 010°40'510.9
2017-Sep-14 04:30N 54°35' E 010°49'510.3
2017-Sep-14 04:00N 54°36' E 010°58'5 9.3
2017-Sep-14 03:30N 54°35' E 011°06'4 8.9
2017-Sep-14 03:00N 54°35' E 011°14'5 9.6
2017-Sep-14 02:30N 54°33' E 011°21'5 9.5
2017-Sep-14 02:00N 54°31' E 011°29'4 8.9
2017-Sep-14 01:30N 54°29' E 011°36'4 8.8
2017-Sep-14 01:00N 54°27' E 011°43'4 8.6
2017-Sep-14 00:30N 54°26' E 011°50'4 8.4
2017-Sep-14 00:00N 54°26' E 011°57'4 8.4
2017-Sep-13 23:30N 54°26' E 012°04'4 7.6
2017-Sep-13 23:00N 54°28' E 012°10'4 8.1
2017-Sep-13 22:30N 54°32' E 012°13'4 7.7
2017-Sep-13 22:00N 54°35' E 012°16'4 7.5
2017-Sep-13 21:30N 54°38' E 012°20'52 8.3
2017-Sep-13 15:16N 54°59' E 013°42'410.2
2017-Sep-13 14:53N 55°01' E 013°48'410.6
2017-Sep-13 14:30N 55°02' E 013°55'510.5
2017-Sep-13 14:00N 55°04' E 014°03'5 9.8
2017-Sep-13 13:30N 55°08' E 014°09'5 9.8
2017-Sep-13 13:00N 55°11' E 014°15'5 9.8
2017-Sep-13 12:30N 55°15' E 014°20'510.0
2017-Sep-13 12:00N 55°19' E 014°26'510.7
2017-Sep-13 11:30N 55°23' E 014°32'611.0
2017-Sep-13 11:00N 55°27' E 014°40'611.3
2017-Sep-13 10:30N 55°29' E 014°48'611.1
2017-Sep-13 10:00N 55°32' E 014°57'611.5
2017-Sep-13 09:30N 55°35' E 015°06'611.5
2017-Sep-13 09:00N 55°38' E 015°14'611.5
2017-Sep-13 08:30N 55°41' E 015°23'611.4
2017-Sep-13 08:00N 55°44' E 015°32'611.5
2017-Sep-13 07:30N 55°47' E 015°40'611.7
2017-Sep-13 07:00N 55°50' E 015°49'611.8
2017-Sep-13 06:30N 55°53' E 015°58'611.8
2017-Sep-13 06:00N 55°56' E 016°07'611.9
2017-Sep-13 05:30N 55°59' E 016°17'611.7
2017-Sep-13 05:00N 56°02' E 016°26'611.6
2017-Sep-13 04:30N 56°05' E 016°34'611.6
2017-Sep-13 04:00N 56°08' E 016°43'911.7
2017-Sep-13 03:14N 56°14' E 016°56'27811.6
2017-Sep-12 03:14N 59°33' E 022°59'312.5
2017-Sep-12 03:00N 59°34' E 023°05'712.8
2017-Sep-12 02:29N 59°36' E 023°17'612.9
2017-Sep-12 02:00N 59°37' E 023°29'  

Dump ship's entire track history